EST,Max TemperatureF,Mean TemperatureF,Min TemperatureF,Max Dew PointF,MeanDew PointF,Min DewpointF,Max Humidity, Mean Humidity, Min Humidity, Max Sea Level PressureIn, Mean Sea Level PressureIn, Min Sea Level PressureIn, Max VisibilityMiles, Mean VisibilityMiles, Min VisibilityMiles, Max Wind SpeedMPH, Mean Wind SpeedMPH, Max Gust SpeedMPH,PrecipitationIn, CloudCover, Events, WindDirDegrees
2013-12-1,56,47,38,40,32,25,83,64,45,30.35,30.21,30.04,10,8,6,6,2,10,0.00,4,,30
2013-12-2,57,49,40,50,45,36,96,84,72,30.01,29.91,29.84,9,5,2,8,2,12,0.09,7,Rain,265
2013-12-3,57,54,50,55,52,48,100,93,86,29.94,29.89,29.85,6,2,0,8,3,12,0.61,8,Fog-Rain,97
2013-12-4,71,63,55,63,59,55,100,89,78,30.07,29.99,29.93,8,4,0,8,2,12,0.15,7,Fog-Rain,166
2013-12-5,71,67,62,67,64,61,100,95,90,30.11,30.05,30.01,9,5,2,13,5,20,0.03,7,Rain,193
2013-12-6,75,69,63,66,64,61,93,79,64,30.09,30.03,30.00,10,8,2,16,7,25,0.08,7,Rain,212
2013-12-7,63,56,48,61,51,45,93,83,72,30.33,30.20,30.05,10,8,2,15,6,21,0.21,8,Rain,317
2013-12-8,49,44,39,46,42,37,100,93,86,30.34,30.29,30.24,4,2,1,17,10,21,0.23,8,Rain,80
2013-12-9,48,43,38,46,41,37,100,95,89,30.26,30.15,30.05,10,4,0,10,3,13,0.38,8,Fog-Rain,69
2013-12-10,53,42,31,49,42,24,100,71,41,30.35,30.08,29.94,10,7,0,25,7,36,0.12,5,Fog-Rain,288
2013-12-11,54,40,25,31,26,23,85,60,35,30.46,30.38,30.34,10,10,5,9,2,13,0.00,0,,333
2013-12-12,54,42,30,25,20,10,69,44,18,30.44,30.37,30.33,10,10,10,10,5,16,0.00,0,,288
2013-12-13,56,40,23,32,24,18,81,53,24,30.38,30.31,30.20,10,10,7,9,2,10,0.00,0,,129
2013-12-14,53,48,43,52,43,31,100,79,58,30.20,29.95,29.84,10,4,0,18,6,26,0.59,7,Fog-Rain,66
2013-12-15,50,41,32,47,39,27,100,76,52,30.17,29.95,29.81,10,7,1,18,10,28,0.04,5,Rain,275
2013-12-16,58,44,29,30,26,21,92,59,25,30.25,30.20,30.17,10,8,4,15,6,22,0.00,0,,274
2013-12-17,62,48,33,32,30,28,82,57,32,30.22,30.16,30.08,10,10,9,17,6,29,0.00,0,,249
2013-12-18,57,45,33,28,18,8,64,40,15,30.32,30.27,30.15,10,10,10,16,5,25,0.00,0,,295
2013-12-19,62,45,28,29,24,19,85,53,20,30.36,30.29,30.24,10,9,6,8,2,12,0.00,0,,163
2013-12-20,58,46,34,49,40,29,86,75,64,30.27,30.21,30.16,10,8,4,6,2,7,T,5,,78
2013-12-21,72,61,50,64,57,47,93,81,68,30.14,30.05,29.97,10,8,5,13,5,18,0.01,8,Rain,146
2013-12-22,71,65,59,64,60,57,100,91,81,30.07,30.03,29.94,10,4,0,16,5,25,2.46,8,Fog-Rain-Thunderstorm,204
2013-12-23,59,49,38,58,51,34,100,86,71,30.21,30.10,30.02,10,7,2,15,7,20,0.80,5,Rain-Thunderstorm,285
2013-12-24,47,37,27,33,23,15,85,59,33,30.41,30.33,30.20,10,10,8,18,8,25,0.00,0,,312
2013-12-25,45,35,25,21,18,15,74,53,31,30.53,30.43,30.37,10,10,10,15,6,18,0.00,2,,64
2013-12-26,58,44,30,28,24,19,72,50,28,30.39,30.33,30.26,10,10,9,8,3,13,0.00,3,,334
2013-12-27,51,41,30,29,26,23,82,59,36,30.48,30.41,30.33,10,10,9,12,3,16,0.00,0,,63
2013-12-28,48,38,28,39,33,26,92,69,45,30.42,30.27,30.04,10,6,2,18,5,25,1.00,5,Rain,62
2013-12-29,57,49,40,46,41,39,100,83,66,30.04,29.93,29.85,10,7,2,16,7,22,0.82,6,Rain,314
2013-12-30,53,47,40,41,39,38,89,76,63,30.19,30.11,30.02,10,9,6,12,6,16,T,2,,276
2013-12-31,50,43,35,38,29,23,83,60,36,30.38,30.30,30.19,10,9,6,13,5,18,0.00,1,,282